Time;durP1;ratioP1;P1;durP2;ratioP2;P2;SDS_P1;SDS_P2;PMS_P1;PMS_P2;Temp;Humidity;BMP_temperature;BMP_pressure;BME280_temperature;BME280_humidity;BME280_pressure;Samples;Min_cycle;Max_cycle;Signal;HPM_P1;HPM_P2
2022/03/30 00:00:56;;;;;;;;;;;;;;;21.56;42.34;100621.41;7279192;19;152073;-58
2022/03/30 00:03:23;;;;;;;;;;;;;;;21.54;42.72;100620.91;7276357;19;152930;-57
2022/03/30 00:05:50;;;;;;;;;;;;;;;21.51;42.73;100619.56;7278178;19;154411;-57
2022/03/30 00:08:17;;;;;;;;;;;;;;;21.50;42.94;100617.06;7279054;19;151741;-57
2022/03/30 00:10:43;;;;;;;;;;;;;;;21.50;42.62;100614.25;7274902;19;153395;-57
2022/03/30 00:13:10;;;;;;;;;;;;;;;21.47;42.66;100615.75;7275318;19;155859;-57
2022/03/30 00:15:37;;;;;;;;;;;;;;;21.43;42.58;100614.75;7284271;19;152476;-58
2022/03/30 00:18:04;;;;;;;;;;;;;;;21.43;43.28;100619.53;7277775;19;154052;-58
2022/03/30 00:20:31;;;;;;;;;;;;;;;21.42;43.00;100615.06;7278119;19;152302;-58
2022/03/30 00:22:57;;;;;;;;;;;;;;;21.36;43.10;100617.16;7278188;19;153139;-58
2022/03/30 00:25:24;;;;;;;;;;;;;;;21.35;42.74;100612.69;7277484;19;153973;-58
2022/03/30 00:27:51;;;;;;;;;;;;;;;21.35;42.75;100611.88;7276052;19;152343;-58
2022/03/30 00:30:18;;;;;;;;;;;;;;;21.35;42.94;100612.69;7276965;19;152806;-58
2022/03/30 00:32:46;;;;;;;;;;;;;;;21.33;43.03;100605.75;7276557;19;153756;-59
2022/03/30 00:35:13;;;;;;;;;;;;;;;21.32;43.11;100606.91;7277029;19;151745;-59
2022/03/30 00:37:41;;;;;;;;;;;;;;;21.30;42.83;100607.25;7283819;19;152392;-58
2022/03/30 00:40:09;;;;;;;;;;;;;;;21.29;43.00;100609.22;7277922;19;152293;-58
2022/03/30 00:42:36;;;;;;;;;;;;;;;21.28;42.90;100603.91;7275264;19;153702;-58
2022/03/30 00:45:08;;;;;;;;;;;;;;;21.29;43.33;100599.94;7276540;19;152252;-59
2022/03/30 00:47:36;;;;;;;;;;;;;;;21.24;43.42;100600.09;7275291;19;151981;-58
2022/03/30 00:50:03;;;;;;;;;;;;;;;21.23;43.06;100592.78;7276085;19;153346;-59
2022/03/30 00:52:30;;;;;;;;;;;;;;;21.21;43.34;100593.09;7275809;19;153924;-59
2022/03/30 00:54:59;;;;;;;;;;;;;;;21.22;43.18;100593.94;7278078;19;152228;-59
2022/03/30 00:57:27;;;;;;;;;;;;;;;21.23;43.50;100587.19;7278837;19;152783;-59
2022/03/30 00:59:55;;;;;;;;;;;;;;;21.18;43.36;100587.31;7282558;19;152038;-58
2022/03/30 01:02:23;;;;;;;;;;;;;;;21.19;43.23;100572.94;7277602;19;152265;-58
2022/03/30 01:04:50;;;;;;;;;;;;;;;21.21;43.53;100581.88;7275598;19;154433;-58
2022/03/30 01:07:17;;;;;;;;;;;;;;;21.20;43.52;100573.78;7278334;19;152009;-58
2022/03/30 01:09:44;;;;;;;;;;;;;;;21.19;43.58;100572.94;7275115;19;153788;-58
2022/03/30 01:12:12;;;;;;;;;;;;;;;21.17;43.48;100572.44;7274774;19;153323;-58
2022/03/30 01:14:44;;;;;;;;;;;;;;;21.19;43.49;100572.94;7277799;19;151804;-58
2022/03/30 01:17:11;;;;;;;;;;;;;;;21.17;43.55;100563.16;7284119;19;152690;-59
2022/03/30 01:19:38;;;;;;;;;;;;;;;21.14;43.54;100555.41;7288932;19;153200;-58
2022/03/30 01:22:07;;;;;;;;;;;;;;;21.13;43.77;100553.72;7283582;19;153531;-58
2022/03/30 01:24:37;;;;;;;;;;;;;;;21.11;43.55;100553.22;7281608;19;153403;-59
2022/03/30 01:27:04;;;;;;;;;;;;;;;21.10;43.97;100555.19;7283306;19;153351;-58
2022/03/30 01:32:25;;;;;;;;;;;;;;;21.08;43.80;100545.41;7281682;19;153758;-58
2022/03/30 01:34:55;;;;;;;;;;;;;;;21.09;44.20;100541.44;7280945;19;151829;-59
2022/03/30 01:37:23;;;;;;;;;;;;;;;21.06;43.69;100548.56;7282145;19;153130;-58
2022/03/30 01:39:50;;;;;;;;;;;;;;;21.03;44.15;100546.38;7281122;19;153774;-58
2022/03/30 01:42:17;;;;;;;;;;;;;;;21.01;43.92;100539.44;7290771;19;151877;-57
2022/03/30 01:44:44;;;;;;;;;;;;;;;21.00;44.21;100540.56;7281646;19;153276;-58
2022/03/30 01:47:12;;;;;;;;;;;;;;;21.00;43.96;100540.56;7281390;19;152349;-58
2022/03/30 01:49:39;;;;;;;;;;;;;;;20.96;44.20;100546.00;7282357;19;152697;-59
2022/03/30 01:52:07;;;;;;;;;;;;;;;20.98;44.33;100534.47;7280553;19;155651;-59
2022/03/30 01:54:35;;;;;;;;;;;;;;;20.99;43.90;100530.47;7282120;19;151811;-59
2022/03/30 01:57:01;;;;;;;;;;;;;;;21.00;44.28;100527.38;7282170;19;153571;-60
2022/03/30 01:59:28;;;;;;;;;;;;;;;20.99;43.90;100525.69;7281220;19;154071;-59
2022/03/30 02:01:55;;;;;;;;;;;;;;;20.99;44.09;100527.66;7282272;19;152069;-59
2022/03/30 02:04:24;;;;;;;;;;;;;;;20.99;44.15;100520.09;7288826;19;152658;-58
2022/03/30 02:06:51;;;;;;;;;;;;;;;20.91;43.82;100525.66;7282044;19;152011;-58
2022/03/30 02:09:18;;;;;;;;;;;;;;;20.88;44.27;100520.69;7280010;19;152781;-58
2022/03/30 02:11:45;;;;;;;;;;;;;;;20.89;44.12;100522.34;7277626;19;153963;-58
2022/03/30 02:14:11;;;;;;;;;;;;;;;20.85;44.46;100514.56;7278437;19;152189;-58
2022/03/30 02:16:38;;;;;;;;;;;;;;;20.84;44.42;100514.88;7281536;19;153949;-59
2022/03/30 02:19:05;;;;;;;;;;;;;;;20.83;44.82;100502.81;7280503;19;154546;-58
2022/03/30 02:21:31;;;;;;;;;;;;;;;20.83;44.98;100508.44;7282469;19;151903;-58
2022/03/30 02:23:58;;;;;;;;;;;;;;;20.84;44.81;100512.91;7281644;19;152687;-58
2022/03/30 02:26:27;;;;;;;;;;;;;;;20.84;44.65;100506.47;7286041;19;154147;-58
2022/03/30 02:28:54;;;;;;;;;;;;;;;20.87;44.98;100503.00;7281830;19;152701;-57
2022/03/30 02:31:21;;;;;;;;;;;;;;;20.83;44.81;100497.22;7275674;19;154188;-58
2022/03/30 02:33:49;;;;;;;;;;;;;;;20.84;44.97;100487.66;7281950;19;152182;-58
2022/03/30 02:36:17;;;;;;;;;;;;;;;20.85;44.63;100488.44;7279910;19;152684;-58
2022/03/30 02:38:51;;;;;;;;;;;;;;;20.84;44.67;100487.66;7279700;19;154867;-58
2022/03/30 02:41:18;;;;;;;;;;;;;;;20.81;44.84;100479.84;7281696;19;152376;-59
2022/03/30 02:43:44;;;;;;;;;;;;;;;20.80;45.08;100480.19;7281303;19;153455;-58
2022/03/30 02:46:11;;;;;;;;;;;;;;;20.78;44.83;100474.88;7279339;19;153132;-58
2022/03/30 02:48:38;;;;;;;;;;;;;;;20.77;45.09;100467.59;7289142;19;152493;-58
2022/03/30 02:51:06;;;;;;;;;;;;;;;20.73;45.47;100466.59;7277520;19;153975;-58
2022/03/30 02:53:33;;;;;;;;;;;;;;;20.74;45.21;100461.81;7279408;19;152475;-58
2022/03/30 02:56:01;;;;;;;;;;;;;;;20.74;45.14;100462.63;7278077;19;154194;-58
2022/03/30 02:58:28;;;;;;;;;;;;;;;20.73;45.26;100463.78;7279599;19;152985;-58
2022/03/30 03:00:55;;;;;;;;;;;;;;;20.69;45.09;100468.38;7279865;19;151843;-57
2022/03/30 03:03:23;;;;;;;;;;;;;;;20.68;45.25;100463.09;7281289;19;153319;-58
2022/03/30 03:05:50;;;;;;;;;;;;;;;20.67;45.40;100470.66;7279398;19;152515;-58
2022/03/30 03:08:17;;;;;;;;;;;;;;;20.63;45.11;100464.03;7287861;19;151731;-58
2022/03/30 03:10:45;;;;;;;;;;;;;;;20.60;45.60;100461.06;7278514;19;153956;-58
2022/03/30 03:13:13;;;;;;;;;;;;;;;20.63;45.32;100472.47;7278341;19;151841;-58
2022/03/30 03:15:40;;;;;;;;;;;;;;;20.58;45.10;100457.75;7280892;19;154396;-58
2022/03/30 03:18:08;;;;;;;;;;;;;;;20.55;45.50;100458.38;7278545;19;153935;-58
2022/03/30 03:20:34;;;;;;;;;;;;;;;20.55;45.60;100455.56;7280211;19;151794;-58
2022/03/30 03:23:02;;;;;;;;;;;;;;;20.53;45.13;100455.91;7280431;19;152729;-59
2022/03/30 03:25:32;;;;;;;;;;;;;;;20.52;45.31;100448.63;7279020;19;154082;-59
2022/03/30 03:28:00;;;;;;;;;;;;;;;20.53;45.65;100446.66;7277954;19;152304;-58
2022/03/30 03:30:27;;;;;;;;;;;;;;;20.52;45.55;100453.41;7284334;19;153255;-58
2022/03/30 03:32:54;;;;;;;;;;;;;;;20.47;45.40;100451.56;7278938;19;151977;-59
2022/03/30 03:35:20;;;;;;;;;;;;;;;20.48;45.71;100453.25;7279903;19;152531;-58
2022/03/30 03:37:47;;;;;;;;;;;;;;;20.47;45.69;100445.97;7276934;19;154485;-58
2022/03/30 03:40:14;;;;;;;;;;;;;;;20.49;45.54;100449.25;7275940;19;151994;-58
2022/03/30 03:42:41;;;;;;;;;;;;;;;20.46;45.66;100458.31;7279081;19;153532;-57
2022/03/30 03:45:08;;;;;;;;;;;;;;;20.45;45.53;100451.06;7278682;19;154218;-58
2022/03/30 03:47:35;;;;;;;;;;;;;;;20.42;45.66;100451.69;7280110;19;152677;-58
2022/03/30 03:50:02;;;;;;;;;;;;;;;20.42;45.61;100443.28;7278842;19;152728;-58
2022/03/30 03:52:29;;;;;;;;;;;;;;;20.41;45.61;100442.44;7284097;19;153349;-58
2022/03/30 03:54:56;;;;;;;;;;;;;;;20.40;45.60;100431.53;7274687;19;153363;-58
2022/03/30 03:57:22;;;;;;;;;;;;;;;20.39;45.49;100438.31;7278796;19;153229;-57
2022/03/30 03:59:49;;;;;;;;;;;;;;;20.38;45.46;100431.03;7277500;19;152305;-57
2022/03/30 04:02:16;;;;;;;;;;;;;;;20.37;45.82;100420.97;7279263;19;152813;-57
2022/03/30 04:04:44;;;;;;;;;;;;;;;20.35;45.53;100424.06;7277202;19;153494;-58
2022/03/30 04:07:11;;;;;;;;;;;;;;;20.34;45.83;100418.81;7278942;19;151919;-58
2022/03/30 04:09:37;;;;;;;;;;;;;;;20.35;45.37;100421.28;7277851;19;152688;-58
2022/03/30 04:12:05;;;;;;;;;;;;;;;20.32;45.85;100427.53;7275738;19;153340;-58
2022/03/30 04:14:31;;;;;;;;;;;;;;;20.32;45.64;100421.09;7285621;19;151940;-58
2022/03/30 04:16:58;;;;;;;;;;;;;;;20.30;45.72;100431.81;7277826;19;154055;-58
2022/03/30 04:19:25;;;;;;;;;;;;;;;20.29;45.89;100430.97;7276140;19;152013;-58
2022/03/30 04:21:52;;;;;;;;;;;;;;;20.28;46.39;100431.25;7278480;19;154053;-58
2022/03/30 04:24:19;;;;;;;;;;;;;;;20.28;45.86;100429.28;7275980;19;154054;-58
2022/03/30 04:26:45;;;;;;;;;;;;;;;20.28;46.48;100426.50;7278285;19;151931;-58
2022/03/30 04:29:12;;;;;;;;;;;;;;;20.28;46.43;100436.88;7278098;19;153389;-58
2022/03/30 04:31:39;;;;;;;;;;;;;;;20.24;46.57;100428.28;7274147;19;154359;-58
2022/03/30 04:34:06;;;;;;;;;;;;;;;20.24;46.01;100428.28;7278366;19;152039;-58
2022/03/30 04:36:32;;;;;;;;;;;;;;;20.25;46.19;100429.94;7284117;19;153287;-58
2022/03/30 04:38:59;;;;;;;;;;;;;;;20.30;46.32;100427.03;7278055;19;152042;-58
2022/03/30 04:41:26;;;;;;;;;;;;;;;20.31;46.62;100428.69;7277521;19;153366;-58
2022/03/30 04:43:53;;;;;;;;;;;;;;;20.35;46.81;100428.88;7275763;19;152124;-58
2022/03/30 04:46:25;;;;;;;;;;;;;;;20.39;46.65;100425.13;7275866;19;152208;-58
2022/03/30 04:48:52;;;;;;;;;;;;;;;20.44;46.66;100423.34;7275288;19;153525;-58
2022/03/30 04:51:19;;;;;;;;;;;;;;;20.47;46.84;100425.47;7273288;19;153827;-58
2022/03/30 04:53:46;;;;;;;;;;;;;;;20.52;47.20;100430.97;7277334;19;151946;-59
2022/03/30 04:56:12;;;;;;;;;;;;;;;20.58;47.51;100422.06;7277634;19;153586;-57
2022/03/30 04:58:41;;;;;;;;;;;;;;;20.66;47.22;100420.47;7282960;19;153507;-58
2022/03/30 05:01:07;;;;;;;;;;;;;;;20.72;47.36;100424.78;7277749;19;152069;-57
2022/03/30 05:03:34;;;;;;;;;;;;;;;20.79;47.24;100426.00;7276113;19;154133;-58
2022/03/30 05:06:01;;;;;;;;;;;;;;;20.86;47.58;100420.75;7277384;19;152744;-58
2022/03/30 05:08:29;;;;;;;;;;;;;;;20.94;47.54;100418.31;7277077;19;152530;-58
2022/03/30 05:10:56;;;;;;;;;;;;;;;21.02;47.03;100421.16;7275799;19;154421;-58
2022/03/30 05:13:22;;;;;;;;;;;;;;;21.06;47.68;100416.53;7274422;19;152101;-58
2022/03/30 05:15:52;;;;;;;;;;;;;;;21.14;47.23;100418.56;7273981;19;152116;-58
2022/03/30 05:18:19;;;;;;;;;;;;;;;21.21;46.98;100427.34;7282803;19;153202;-58
2022/03/30 05:20:46;;;;;;;;;;;;;;;21.29;46.88;100428.53;7277803;19;153647;-58
2022/03/30 05:23:13;;;;;;;;;;;;;;;21.36;46.60;100419.63;7273755;19;153838;-58
2022/03/30 05:25:39;;;;;;;;;;;;;;;21.41;46.44;100417.47;7276119;19;151668;-58
2022/03/30 05:28:06;;;;;;;;;;;;;;;21.48;46.38;100417.00;7277204;19;153351;-58
2022/03/30 05:30:35;;;;;;;;;;;;;;;21.54;45.84;100415.69;7274788;19;153774;-58
2022/03/30 05:33:01;;;;;;;;;;;;;;;21.60;46.07;100414.38;7271557;19;151593;-58
2022/03/30 05:35:28;;;;;;;;;;;;;;;21.63;45.59;100411.72;7273217;19;154004;-59
2022/03/30 05:37:55;;;;;;;;;;;;;;;21.70;45.28;100417.72;7275131;19;154269;-59
2022/03/30 05:40:22;;;;;;;;;;;;;;;21.76;44.99;100418.34;7282391;19;152195;-58
2022/03/30 05:42:48;;;;;;;;;;;;;;;21.81;45.32;100420.19;7275273;19;154232;-58
2022/03/30 05:45:15;;;;;;;;;;;;;;;21.86;44.70;100411.56;7275089;19;152266;-58
2022/03/30 05:47:43;;;;;;;;;;;;;;;21.91;44.94;100417.88;7274216;19;153825;-58
2022/03/30 05:50:10;;;;;;;;;;;;;;;21.95;44.42;100420.88;7274928;19;154087;-59
2022/03/30 05:52:36;;;;;;;;;;;;;;;21.99;44.51;100419.06;7273476;19;151839;-58
2022/03/30 05:55:03;;;;;;;;;;;;;;;22.03;44.23;100428.50;7276156;19;152864;-59
2022/03/30 05:57:30;;;;;;;;;;;;;;;22.07;44.53;100427.53;7273237;19;153946;-58
2022/03/30 05:59:58;;;;;;;;;;;;;;;22.12;44.40;100424.50;7272947;19;152087;-59
2022/03/30 06:02:25;;;;;;;;;;;;;;;22.16;44.11;100430.31;7283150;19;153129;-59
2022/03/30 06:04:53;;;;;;;;;;;;;;;22.21;43.88;100423.69;7281601;19;151781;-59
2022/03/30 06:07:20;;;;;;;;;;;;;;;22.25;43.98;100424.69;7282930;19;152670;-59
2022/03/30 06:09:47;;;;;;;;;;;;;;;22.30;44.14;100422.53;7278141;19;152785;-59
2022/03/30 06:12:15;;;;;;;;;;;;;;;22.36;43.95;100428.78;7280836;19;151960;-59
2022/03/30 06:14:42;;;;;;;;;;;;;;;22.39;43.98;100426.16;7281457;19;152640;-58
2022/03/30 06:17:09;;;;;;;;;;;;;;;22.45;44.03;100422.00;7281212;19;153234;-58
2022/03/30 06:19:37;;;;;;;;;;;;;;;22.51;44.72;100425.47;7281367;19;151826;-58
2022/03/30 06:22:08;;;;;;;;;;;;;;;22.55;44.72;100418.81;7281786;19;153346;-58
2022/03/30 06:24:36;;;;;;;;;;;;;;;22.60;43.86;100424.28;7287068;19;153121;-59
2022/03/30 06:27:04;;;;;;;;;;;;;;;22.64;43.61;100421.63;7282368;19;153929;-59
2022/03/30 06:29:32;;;;;;;;;;;;;;;22.69;43.51;100420.59;7280109;19;154310;-59
2022/03/30 06:32:09;;;;;;;;;;;;;;;22.72;43.13;100417.16;7281745;19;152082;-59
2022/03/30 06:34:49;;;;;;;;;;;;;;;22.76;43.18;100423.78;7278074;19;152814;-59
2022/03/30 06:37:16;;;;;;;;;;;;;;;22.59;39.79;100414.19;7280362;19;154373;-58
2022/03/30 06:39:43;;;;;;;;;;;;;;;22.47;37.67;100418.84;7280419;19;152384;-58
2022/03/30 06:42:10;;;;;;;;;;;;;;;22.33;36.38;100424.66;7281345;19;152785;-59
2022/03/30 06:44:37;;;;;;;;;;;;;;;22.37;38.19;100424.81;7276800;19;153314;-59
2022/03/30 06:47:04;;;;;;;;;;;;;;;22.42;38.60;100427.47;7288021;19;151884;-59
2022/03/30 06:49:30;;;;;;;;;;;;;;;22.44;38.96;100427.97;7280827;19;154416;-59
2022/03/30 06:51:57;;;;;;;;;;;;;;;22.46;39.12;100426.47;7279345;19;151879;-59
2022/03/30 06:54:25;;;;;;;;;;;;;;;22.46;39.37;100423.66;7281372;19;152808;-58
2022/03/30 06:56:52;;;;;;;;;;;;;;;22.36;39.00;100432.44;7281335;19;153115;-59
2022/03/30 06:59:19;;;;;;;;;;;;;;;22.37;39.05;100431.28;7280146;19;153697;-59
2022/03/30 07:01:46;;;;;;;;;;;;;;;22.35;38.99;100430.78;7281185;19;153437;-59
2022/03/30 07:04:13;;;;;;;;;;;;;;;22.37;38.95;100444.53;7276145;19;154260;-59
2022/03/30 07:10:14;;;;;;;;;;;;;;;22.35;38.89;100433.59;7281343;19;151756;-59
2022/03/30 07:12:12;;;;;;;;;;;;;;;22.33;39.54;100441.56;7279021;19;152102;-59
2022/03/30 07:14:38;;;;;;;;;;;;;;;22.31;39.28;100434.59;7279066;19;153312;-59
2022/03/30 07:17:05;;;;;;;;;;;;;;;22.29;39.36;100446.19;7280179;19;153976;-59
2022/03/30 07:19:32;;;;;;;;;;;;;;;22.28;39.06;100436.09;7277468;19;151821;-59
2022/03/30 07:21:59;;;;;;;;;;;;;;;22.28;39.24;100438.91;7278893;19;153583;-60
2022/03/30 07:24:25;;;;;;;;;;;;;;;22.25;39.59;100433.97;7278627;19;153273;-59
2022/03/30 07:26:52;;;;;;;;;;;;;;;22.23;38.88;100433.44;7280175;19;152035;-59
2022/03/30 07:29:19;;;;;;;;;;;;;;;22.22;39.07;100431.78;7286239;19;152813;-58
2022/03/30 07:31:46;;;;;;;;;;;;;;;22.26;39.41;100432.78;7277811;19;152210;-57
2022/03/30 07:34:13;;;;;;;;;;;;;;;22.26;39.83;100427.16;7280020;19;153206;-58
2022/03/30 07:36:39;;;;;;;;;;;;;;;22.21;39.51;100426.50;7277459;19;152475;-58
2022/03/30 07:39:06;;;;;;;;;;;;;;;22.19;39.66;100421.22;7279753;19;152222;-58
2022/03/30 07:41:33;;;;;;;;;;;;;;;22.15;39.45;100426.69;7277081;19;152669;-57
2022/03/30 07:44:00;;;;;;;;;;;;;;;22.13;39.20;100425.34;7277486;19;153878;-58
2022/03/30 07:46:27;;;;;;;;;;;;;;;22.09;39.38;100425.19;7278655;19;152385;-58
2022/03/30 07:48:54;;;;;;;;;;;;;;;22.06;39.58;100420.22;7280848;19;153383;-58
2022/03/30 07:51:21;;;;;;;;;;;;;;;22.01;39.39;100417.59;7284946;19;153312;-58
2022/03/30 07:53:47;;;;;;;;;;;;;;;22.00;39.59;100412.28;7277032;19;152021;-58
2022/03/30 07:56:14;;;;;;;;;;;;;;;21.96;39.76;100409.31;7277960;19;154258;-58
2022/03/30 07:58:46;;;;;;;;;;;;;;;21.94;39.23;100408.00;7280084;19;152035;-58
2022/03/30 08:01:12;;;;;;;;;;;;;;;21.91;39.68;100405.78;7279607;19;153082;-58
2022/03/30 08:03:40;;;;;;;;;;;;;;;21.88;39.45;100409.28;7277954;19;154121;-58
2022/03/30 08:06:07;;;;;;;;;;;;;;;21.84;39.79;100409.13;7279906;19;151898;-58
2022/03/30 08:08:33;;;;;;;;;;;;;;;21.81;39.60;100406.13;7277657;19;153248;-57
2022/03/30 08:11:00;;;;;;;;;;;;;;;21.76;39.32;100398.66;7274947;19;153448;-58
2022/03/30 08:13:27;;;;;;;;;;;;;;;21.74;39.55;100410.25;7281890;19;151801;-58
2022/03/30 08:15:54;;;;;;;;;;;;;;;21.71;39.41;100410.09;7277523;19;156019;-57
2022/03/30 08:18:21;;;;;;;;;;;;;;;21.66;39.73;100402.66;7277348;19;153880;-58
2022/03/30 08:23:36;;;;;;;;;;;;;;;21.61;39.56;100404.78;7277106;19;153974;-58
2022/03/30 08:26:03;;;;;;;;;;;;;;;21.60;39.58;100398.34;7276334;19;151661;-58
2022/03/30 08:28:30;;;;;;;;;;;;;;;21.56;39.62;100396.53;7278928;19;152573;-58
2022/03/30 08:30:57;;;;;;;;;;;;;;;21.53;39.43;100400.78;7276099;19;153953;-58
2022/03/30 08:33:26;;;;;;;;;;;;;;;21.50;39.71;100409.91;7276929;19;151881;-58
2022/03/30 08:35:54;;;;;;;;;;;;;;;21.48;39.60;100400.97;7285205;19;152763;-58
2022/03/30 08:38:21;;;;;;;;;;;;;;;21.45;39.70;100406.41;7277334;19;152031;-57
2022/03/30 08:40:48;;;;;;;;;;;;;;;21.42;39.88;100407.06;7278049;19;153515;-58
2022/03/30 08:43:15;;;;;;;;;;;;;;;21.39;39.53;100408.56;7277154;19;154150;-58
2022/03/30 08:45:42;;;;;;;;;;;;;;;21.37;39.85;100412.84;7278564;19;152526;-58
2022/03/30 08:48:08;;;;;;;;;;;;;;;21.35;40.12;100403.94;7278449;19;153644;-57
2022/03/30 08:50:36;;;;;;;;;;;;;;;21.32;40.05;100398.94;7275926;19;153922;-58
2022/03/30 08:53:04;;;;;;;;;;;;;;;21.29;39.92;100395.66;7276596;19;152102;-58
2022/03/30 08:55:31;;;;;;;;;;;;;;;21.27;39.92;100395.13;7277616;19;153730;-57
2022/03/30 08:57:59;;;;;;;;;;;;;;;21.25;39.64;100388.19;7283849;19;154712;-58
2022/03/30 09:00:26;;;;;;;;;;;;;;;21.22;39.91;100392.47;7252690;19;152812;-57
2022/03/30 09:03:00;;;;;;;;;;;;;;;21.19;40.20;100393.13;7262521;19;153900;-58
2022/03/30 09:05:34;;;;;;;;;;;;;;;21.17;40.08;100392.63;7264174;19;152617;-58
2022/03/30 09:08:14;;;;;;;;;;;;;;;21.16;39.95;100396.59;7274083;19;152621;-58
2022/03/30 09:10:42;;;;;;;;;;;;;;;21.14;40.05;100395.25;7275380;19;153374;-57
2022/03/30 09:13:10;;;;;;;;;;;;;;;21.11;39.67;100388.28;7273610;19;151773;-58
2022/03/30 09:15:38;;;;;;;;;;;;;;;21.10;39.68;100389.44;7272209;19;154227;-57
2022/03/30 09:18:06;;;;;;;;;;;;;;;21.08;39.99;100390.91;7263109;19;153786;-57
2022/03/30 09:20:38;;;;;;;;;;;;;;;21.03;40.09;100383.47;7280493;19;153587;-58
2022/03/30 09:23:06;;;;;;;;;;;;;;;21.04;40.20;100382.31;7275162;19;154084;-58
2022/03/30 09:25:47;;;;;;;;;;;;;;;21.01;40.00;100385.78;7274833;19;152117;-57
2022/03/30 09:28:14;;;;;;;;;;;;;;;20.99;39.87;100382.47;7271904;19;153241;-57
2022/03/30 09:30:42;;;;;;;;;;;;;;;20.98;39.81;100372.41;7273750;19;158141;-57
2022/03/30 09:33:10;;;;;;;;;;;;;;;20.95;40.08;100380.63;7275487;19;151858;-56
2022/03/30 09:35:40;;;;;;;;;;;;;;;20.92;39.86;100376.50;7275714;19;152695;-57
2022/03/30 09:38:11;;;;;;;;;;;;;;;20.92;39.81;100378.47;7279378;19;154887;-57
2022/03/30 09:40:37;;;;;;;;;;;;;;;20.91;40.06;100388.03;7287215;19;152136;-57
2022/03/30 09:43:15;;;;;;;;;;;;;;;20.90;39.77;100386.38;7278201;19;153278;-58
2022/03/30 09:45:42;;;;;;;;;;;;;;;20.85;40.13;100385.38;7282116;19;151782;-58
2022/03/30 09:48:10;;;;;;;;;;;;;;;20.83;40.05;100389.69;7280993;19;153762;-58
2022/03/30 09:50:44;;;;;;;;;;;;;;;20.80;40.00;100385.53;7278733;19;153250;-57
2022/03/30 09:53:13;;;;;;;;;;;;;;;20.78;40.29;100382.22;7281057;19;152140;-57
2022/03/30 09:55:56;;;;;;;;;;;;;;;20.78;40.39;100387.00;7281750;19;153313;-57
2022/03/30 09:58:25;;;;;;;;;;;;;;;20.74;40.43;100389.66;7279962;19;153556;-57
2022/03/30 10:01:01;;;;;;;;;;;;;;;20.72;40.49;100397.53;7282235;19;151936;-58
2022/03/30 10:03:46;;;;;;;;;;;;;;;20.71;40.50;100390.31;7288098;19;152672;-58
2022/03/30 10:06:15;;;;;;;;;;;;;;;20.70;40.35;100387.81;7280372;19;151947;-57
2022/03/30 10:08:47;;;;;;;;;;;;;;;20.66;40.42;100387.63;7280538;19;151876;-57
2022/03/30 10:11:16;;;;;;;;;;;;;;;20.62;40.60;100383.81;7279671;19;154188;-57
2022/03/30 10:13:45;;;;;;;;;;;;;;;20.62;40.48;100385.78;7276811;19;156027;-57
2022/03/30 10:16:31;;;;;;;;;;;;;;;20.60;40.41;100374.88;7278658;19;156889;-58
2022/03/30 10:18:58;;;;;;;;;;;;;;;20.59;40.63;100378.00;7280200;19;154214;-58
2022/03/30 10:21:28;;;;;;;;;;;;;;;20.57;40.52;100374.69;7277825;19;151913;-57
2022/03/30 10:24:13;;;;;;;;;;;;;;;20.54;40.57;100373.34;7281326;19;152576;-57
2022/03/30 10:26:48;;;;;;;;;;;;;;;20.52;40.44;100372.88;7286172;19;153971;-58
2022/03/30 10:29:17;;;;;;;;;;;;;;;20.52;40.63;100366.41;7275988;19;154528;-58
2022/03/30 10:32:04;;;;;;;;;;;;;;;20.50;40.54;100365.91;7280006;19;154226;-58
2022/03/30 10:34:32;;;;;;;;;;;;;;;20.47;40.59;100361.78;7274799;19;152864;-58
2022/03/30 10:37:02;;;;;;;;;;;;;;;20.46;40.61;100360.09;7278998;19;152671;-58
2022/03/30 10:39:29;;;;;;;;;;;;;;;20.46;40.33;100359.28;7279587;19;152802;-58
2022/03/30 10:42:16;;;;;;;;;;;;;;;20.43;40.31;100363.56;7265926;19;154035;-58
2022/03/30 10:44:46;;;;;;;;;;;;;;;20.41;40.68;100357.44;7278036;19;153886;-58
2022/03/30 10:47:17;;;;;;;;;;;;;;;20.39;40.79;100352.16;7277071;19;153394;-58
2022/03/30 10:49:48;;;;;;;;;;;;;;;20.38;40.63;100355.28;7287712;19;152074;-58
2022/03/30 10:52:35;;;;;;;;;;;;;;;20.36;40.69;100352.78;7277307;19;154295;-57
2022/03/30 10:55:14;;;;;;;;;;;;;;;20.35;40.85;100350.34;7275313;19;152512;-57
2022/03/30 10:57:44;;;;;;;;;;;;;;;20.32;40.45;100348.97;7274704;19;153746;-57
2022/03/30 11:00:20;;;;;;;;;;;;;;;20.32;40.63;100356.56;7270266;19;154176;-57
2022/03/30 11:02:48;;;;;;;;;;;;;;;20.30;40.48;100345.69;7279975;19;152169;-58
2022/03/30 11:05:16;;;;;;;;;;;;;;;20.28;40.94;100342.31;7279439;19;153735;-57
2022/03/30 11:07:43;;;;;;;;;;;;;;;20.26;40.84;100343.81;7277957;19;154100;-58
2022/03/30 11:10:12;;;;;;;;;;;;;;;20.24;40.75;100343.28;7279668;19;151943;-57
2022/03/30 11:12:58;;;;;;;;;;;;;;;20.23;40.62;100336.84;7285629;19;152868;-58
2022/03/30 11:15:25;;;;;;;;;;;;;;;20.22;40.56;100342.78;7278977;19;152092;-58
2022/03/30 11:17:51;;;;;;;;;;;;;;;20.20;40.70;100333.88;7279755;19;152011;-57
2022/03/30 11:20:19;;;;;;;;;;;;;;;20.19;40.61;100343.41;7278330;19;153999;-57
2022/03/30 11:22:47;;;;;;;;;;;;;;;20.17;40.72;100331.72;7279816;19;151870;-58
2022/03/30 11:25:13;;;;;;;;;;;;;;;20.16;40.75;100333.69;7276213;19;152439;-57
2022/03/30 11:27:41;;;;;;;;;;;;;;;20.19;40.79;100329.41;7277737;19;153953;-57
2022/03/30 11:30:12;;;;;;;;;;;;;;;20.13;40.75;100328.69;7272579;19;152193;-58
2022/03/30 11:32:41;;;;;;;;;;;;;;;20.14;40.74;100323.91;7279972;19;152801;-57
2022/03/30 11:35:12;;;;;;;;;;;;;;;20.12;40.70;100332.69;7282844;19;152131;-58
2022/03/30 11:37:40;;;;;;;;;;;;;;;20.10;41.00;100326.53;7279132;19;152337;-57
2022/03/30 11:40:09;;;;;;;;;;;;;;;20.11;41.14;100325.41;7277394;19;154142;-58
2022/03/30 11:42:43;;;;;;;;;;;;;;;20.11;40.92;100322.59;7279179;19;152311;-58
2022/03/30 11:45:19;;;;;;;;;;;;;;;20.16;40.70;100318.84;7279141;19;152587;-58
2022/03/30 11:47:47;;;;;;;;;;;;;;;20.17;41.07;100314.88;7277006;19;155880;-58
2022/03/30 11:50:15;;;;;;;;;;;;;;;20.21;40.62;100322.34;7276415;19;152135;-58
2022/03/30 11:52:44;;;;;;;;;;;;;;;20.26;40.89;100316.56;7276501;19;154118;-58
2022/03/30 11:55:11;;;;;;;;;;;;;;;20.32;41.00;100309.69;7282511;19;153335;-57
2022/03/30 11:57:41;;;;;;;;;;;;;;;20.39;40.62;100312.88;7276092;19;153966;-58
2022/03/30 12:00:09;;;;;;;;;;;;;;;20.48;40.41;100314.91;7274924;19;153320;-58
2022/03/30 12:02:37;;;;;;;;;;;;;;;20.54;40.60;100313.59;7278764;19;152297;-58
2022/03/30 12:05:06;;;;;;;;;;;;;;;20.58;40.78;100309.00;7278541;19;152940;-58
2022/03/30 12:07:34;;;;;;;;;;;;;;;20.62;40.32;100307.19;7276847;19;153921;-58
2022/03/30 12:10:02;;;;;;;;;;;;;;;20.67;40.60;100301.44;7275934;19;152026;-57
2022/03/30 12:12:35;;;;;;;;;;;;;;;20.71;40.52;100297.66;7277588;19;152471;-58
2022/03/30 12:15:04;;;;;;;;;;;;;;;20.75;40.53;100295.84;7275673;19;154007;-58
2022/03/30 12:17:31;;;;;;;;;;;;;;;20.79;39.98;100293.22;7286755;19;152097;-58
2022/03/30 12:20:00;;;;;;;;;;;;;;;20.83;40.06;100294.22;7277494;19;154033;-58
2022/03/30 12:22:27;;;;;;;;;;;;;;;20.88;40.13;100296.03;7276871;19;151729;-57
2022/03/30 12:24:53;;;;;;;;;;;;;;;20.90;40.18;100297.34;7277926;19;152929;-58
2022/03/30 12:27:20;;;;;;;;;;;;;;;20.94;39.81;100295.53;7276075;19;155406;-58
2022/03/30 12:29:47;;;;;;;;;;;;;;;20.97;40.17;100283.69;7275467;19;151772;-58
2022/03/30 12:32:15;;;;;;;;;;;;;;;20.99;39.76;100281.34;7278901;19;153725;-58
2022/03/30 12:34:43;;;;;;;;;;;;;;;21.03;40.17;100284.34;7274174;19;153094;-58
2022/03/30 12:37:10;;;;;;;;;;;;;;;21.06;39.94;100283.69;7277052;19;153351;-58
2022/03/30 12:39:39;;;;;;;;;;;;;;;21.07;40.17;100280.56;7283825;19;151958;-58
2022/03/30 12:42:22;;;;;;;;;;;;;;;21.09;39.97;100275.41;7278351;19;151705;-57